Time;durP1;ratioP1;P1;durP2;ratioP2;P2;SDS_P1;SDS_P2;PMS_P1;PMS_P2;Temp;Humidity;BMP_temperature;BMP_pressure;BME280_temperature;BME280_humidity;BME280_pressure;Samples;Min_cycle;Max_cycle;Signal;HPM_P1;HPM_P2
2023/12/11 00:00:39;;;;;;;3.55;1.38;;;;;;;9.79;79.79;99546.81;4123868;28;20034;-64
2023/12/11 00:02:41;;;;;;;5.53;1.55;;;;;;;9.76;79.76;99546.81;4126376;28;20092;-64
2023/12/11 00:04:45;;;;;;;4.25;1.23;;;;;;;9.70;80.30;99552.00;4126517;28;20045;-64
2023/12/11 00:06:48;;;;;;;3.15;1.05;;;;;;;9.66;80.38;99545.06;4125721;28;20501;-63
2023/12/11 00:08:51;;;;;;;3.42;1.30;;;;;;;9.77;80.32;99551.16;4110516;28;20047;-64
2023/12/11 00:10:55;;;;;;;2.75;1.20;;;;;;;9.81;79.40;99556.34;4111095;28;20053;-64
2023/12/11 00:12:58;;;;;;;3.20;1.42;;;;;;;9.80;79.65;99558.09;4127334;28;20034;-64
2023/12/11 00:15:00;;;;;;;1.98;1.08;;;;;;;9.87;79.79;99548.56;4127948;28;20034;-65
2023/12/11 00:17:03;;;;;;;3.83;1.38;;;;;;;9.94;79.00;99550.31;4126414;28;20045;-65
2023/12/11 00:19:06;;;;;;;2.83;1.02;;;;;;;10.03;79.40;99544.28;4098055;28;20055;-65
2023/12/11 00:21:10;;;;;;;4.40;1.15;;;;;;;10.03;79.25;99555.56;4123720;28;20046;-64
2023/12/11 00:23:13;;;;;;;4.72;1.40;;;;;;;9.95;79.35;99552.06;4124925;28;20130;-64
2023/12/11 00:25:16;;;;;;;5.28;2.20;;;;;;;9.96;79.31;99556.41;4126907;28;20038;-64
2023/12/11 00:27:19;;;;;;;6.53;1.33;;;;;;;10.01;78.49;99548.63;4103434;28;20093;-62
2023/12/11 00:29:22;;;;;;;2.67;0.90;;;;;;;10.05;78.46;99553.81;4123081;28;20070;-65
2023/12/11 00:31:25;;;;;;;3.10;1.05;;;;;;;10.05;78.27;99566.78;4124309;28;20045;-64
2023/12/11 00:33:28;;;;;;;3.80;0.95;;;;;;;10.15;78.05;99549.50;4127485;28;20098;-64
2023/12/11 00:35:35;;;;;;;4.25;1.00;;;;;;;10.13;78.35;99565.09;4125025;28;20432;-64
2023/12/11 00:37:38;;;;;;;2.92;1.25;;;;;;;10.17;77.89;99565.94;4127027;28;20129;-64
2023/12/11 00:39:43;;;;;;;2.42;1.00;;;;;;;10.23;77.55;99573.75;4129113;28;20042;-65
2023/12/11 00:41:46;;;;;;;5.38;1.30;;;;;;;10.25;78.00;99571.13;4130068;28;20049;-65
2023/12/11 00:43:52;;;;;;;1.98;0.82;;;;;;;10.25;77.55;99571.13;4129482;28;20034;-65
2023/12/11 00:45:55;;;;;;;3.97;1.00;;;;;;;10.32;77.33;99575.47;4125534;28;20527;-64
2023/12/11 00:47:58;;;;;;;4.43;1.30;;;;;;;10.34;76.61;99579.00;4130875;28;20038;-64
2023/12/11 00:50:01;;;;;;;3.03;1.23;;;;;;;10.43;76.92;99581.59;4127198;28;22191;-64
2023/12/11 00:52:08;;;;;;;1.92;0.98;;;;;;;10.44;76.63;99567.75;4127521;28;20564;-64
2023/12/11 00:54:11;;;;;;;3.70;0.80;;;;;;;10.53;76.27;99571.19;4129952;28;20030;-65
2023/12/11 00:56:15;;;;;;;2.83;0.80;;;;;;;10.55;76.53;99557.34;4126838;28;20042;-65
2023/12/11 00:58:18;;;;;;;5.20;1.00;;;;;;;10.52;76.48;99565.13;4129200;28;20073;-65
2023/12/11 01:00:22;;;;;;;1.95;0.80;;;;;;;10.56;75.49;99561.69;4131585;28;20141;-65
2023/12/11 01:02:25;;;;;;;2.17;0.60;;;;;;;10.54;76.07;99571.22;4127896;28;20080;-64
2023/12/11 01:04:27;;;;;;;1.95;0.90;;;;;;;10.61;75.90;99564.28;4126522;28;20046;-65
2023/12/11 01:06:30;;;;;;;2.22;0.80;;;;;;;10.66;75.65;99562.56;4128771;28;20527;-65
2023/12/11 01:08:38;;;;;;;3.42;1.25;;;;;;;10.67;75.70;99560.81;4130075;28;20388;-65
2023/12/11 01:10:41;;;;;;;0.73;0.65;;;;;;;10.66;75.75;99575.53;4131349;28;20113;-64
2023/12/11 01:12:44;;;;;;;2.35;0.80;;;;;;;10.65;75.69;99571.22;4125350;28;20030;-64
2023/12/11 01:14:47;;;;;;;6.05;1.23;;;;;;;10.65;74.97;99563.41;4107852;28;20049;-65
2023/12/11 01:16:52;;;;;;;1.65;0.85;;;;;;;10.68;75.38;99575.53;4128790;28;20046;-65
2023/12/11 01:18:55;;;;;;;1.83;0.55;;;;;;;10.63;75.71;99571.22;4128562;28;20088;-65
2023/12/11 01:20:57;;;;;;;1.65;0.77;;;;;;;10.65;75.79;99571.22;4124653;28;20316;-64
2023/12/11 01:23:00;;;;;;;3.50;1.10;;;;;;;10.72;75.27;99572.06;4128172;28;20039;-65
2023/12/11 01:25:03;;;;;;;2.67;0.70;;;;;;;10.70;75.35;99569.44;4125724;28;20138;-65
2023/12/11 01:27:06;;;;;;;1.52;0.80;;;;;;;10.68;75.72;99572.94;4127604;28;20084;-65
2023/12/11 01:29:09;;;;;;;1.63;0.60;;;;;;;10.72;75.54;99579.84;4129226;28;20048;-65
2023/12/11 01:31:12;;;;;;;0.88;0.63;;;;;;;10.67;75.20;99572.06;4124434;28;20117;-65
2023/12/11 01:33:17;;;;;;;1.38;0.88;;;;;;;10.70;74.91;99569.44;4129495;28;20118;-64
2023/12/11 01:35:20;;;;;;;1.33;0.80;;;;;;;10.71;75.17;99563.41;4110755;28;20063;-65
2023/12/11 01:37:23;;;;;;;2.55;0.80;;;;;;;10.71;75.47;99570.34;4129238;28;20046;-65
2023/12/11 01:39:26;;;;;;;1.98;0.70;;;;;;;10.67;75.07;99561.66;4128822;28;20066;-65
2023/12/11 01:41:29;;;;;;;3.15;0.95;;;;;;;10.70;74.64;99559.06;4126616;28;20382;-64
2023/12/11 01:43:32;;;;;;;3.60;1.10;;;;;;;10.71;75.00;99560.78;4130471;28;20563;-64
2023/12/11 01:45:35;;;;;;;2.53;0.63;;;;;;;10.67;75.20;99556.47;4127469;28;20042;-65
2023/12/11 01:47:38;;;;;;;1.85;0.85;;;;;;;10.67;74.78;99564.25;4129510;28;20093;-65
2023/12/11 01:49:43;;;;;;;3.25;0.98;;;;;;;10.70;75.16;99548.66;4121469;28;20066;-64
2023/12/11 01:51:47;;;;;;;1.73;0.70;;;;;;;10.63;75.28;99553.00;4126492;28;20149;-64
2023/12/11 01:53:51;;;;;;;1.67;0.90;;;;;;;10.65;74.75;99551.25;4129752;28;20500;-64
2023/12/11 01:55:54;;;;;;;4.95;1.35;;;;;;;10.61;74.71;99543.47;4128618;28;20471;-63
2023/12/11 01:57:58;;;;;;;3.95;0.82;;;;;;;10.65;75.18;99545.22;4127309;28;20046;-63
2023/12/11 02:00:04;;;;;;;4.65;0.98;;;;;;;10.67;75.49;99548.66;4127621;28;20053;-64
2023/12/11 02:02:07;;;;;;;4.82;1.02;;;;;;;10.65;74.89;99545.22;4126326;28;20042;-63
2023/12/11 02:04:10;;;;;;;2.40;0.70;;;;;;;10.63;75.50;99547.81;4128819;28;20038;-64
2023/12/11 02:06:15;;;;;;;3.70;0.90;;;;;;;10.69;74.66;99543.47;4126735;28;20455;-63
2023/12/11 02:08:18;;;;;;;2.88;0.88;;;;;;;10.68;74.48;99559.94;4128505;28;20485;-64
2023/12/11 02:10:21;;;;;;;2.42;1.13;;;;;;;10.64;75.34;99554.75;4128971;28;20061;-64
2023/12/11 02:12:24;;;;;;;3.90;0.80;;;;;;;10.60;75.58;99562.53;4128619;28;20149;-63
2023/12/11 02:14:27;;;;;;;3.45;0.90;;;;;;;10.63;74.81;99555.63;4128363;28;20065;-63
2023/12/11 02:16:30;;;;;;;3.38;1.38;;;;;;;10.64;75.50;99559.06;4128088;28;20042;-63
2023/12/11 02:18:33;;;;;;;4.45;1.10;;;;;;;10.62;74.91;99550.41;4128656;28;20089;-64
2023/12/11 02:20:36;;;;;;;4.43;1.10;;;;;;;10.67;74.52;99553.88;4128024;28;20073;-65
2023/12/11 02:22:41;;;;;;;2.53;0.90;;;;;;;10.62;75.01;99535.69;4127037;28;20485;-65
2023/12/11 02:24:48;;;;;;;7.07;1.05;;;;;;;10.71;74.28;99537.41;4126094;28;20088;-65
2023/12/11 02:26:53;;;;;;;3.55;0.95;;;;;;;10.70;73.97;99538.25;4126995;28;20054;-65
2023/12/11 02:28:55;;;;;;;2.58;1.00;;;;;;;10.71;73.95;99539.16;4106796;28;20555;-65
2023/12/11 02:30:57;;;;;;;3.75;0.95;;;;;;;10.66;74.14;99541.75;4130827;28;20123;-63
2023/12/11 02:33:00;;;;;;;4.20;1.02;;;;;;;10.66;74.30;99536.56;4127835;28;20113;-64
2023/12/11 02:35:04;;;;;;;3.47;0.90;;;;;;;10.65;74.86;99533.06;4128028;28;20038;-65
2023/12/11 02:37:07;;;;;;;3.10;1.05;;;;;;;10.62;73.89;99551.28;4126926;28;20034;-65
2023/12/11 02:39:10;;;;;;;2.35;1.20;;;;;;;10.64;74.25;99544.34;4124941;28;20131;-65
2023/12/11 02:41:13;;;;;;;4.00;1.17;;;;;;;10.65;74.03;99550.41;4127253;28;20128;-64
2023/12/11 02:43:18;;;;;;;3.65;1.23;;;;;;;10.69;73.98;99551.25;4127382;28;20034;-65
2023/12/11 02:45:21;;;;;;;3.45;1.33;;;;;;;10.71;73.81;99549.53;4126896;28;20060;-65
2023/12/11 02:47:24;;;;;;;3.60;1.30;;;;;;;10.64;73.87;99543.47;4128213;28;20042;-65
2023/12/11 02:49:26;;;;;;;4.50;1.15;;;;;;;10.59;74.52;99538.28;4113065;28;20038;-65
2023/12/11 02:51:29;;;;;;;3.60;1.15;;;;;;;10.61;74.50;99541.72;4124863;28;20666;-65
2023/12/11 02:53:31;;;;;;;4.05;0.88;;;;;;;10.64;74.33;99548.66;4125990;28;20070;-65
2023/12/11 02:55:34;;;;;;;3.20;0.88;;;;;;;10.55;74.13;99557.34;4127475;28;20034;-65
2023/12/11 02:57:37;;;;;;;3.20;1.35;;;;;;;10.52;74.26;99549.53;4126944;28;20038;-65
2023/12/11 02:59:41;;;;;;;9.02;1.90;;;;;;;10.59;73.70;99555.63;4127729;28;20080;-65
2023/12/11 03:01:44;;;;;;;3.55;1.02;;;;;;;10.65;73.61;99550.41;4125490;28;20050;-65
2023/12/11 03:03:47;;;;;;;4.80;1.50;;;;;;;10.68;73.84;99547.81;4129245;28;20416;-65
2023/12/11 03:05:51;;;;;;;5.00;1.50;;;;;;;10.69;73.21;99546.06;4125103;28;20137;-65
2023/12/11 03:07:53;;;;;;;6.55;1.30;;;;;;;10.70;73.68;99548.66;4125704;28;20042;-65
2023/12/11 03:09:56;;;;;;;9.65;2.85;;;;;;;10.73;73.83;99547.78;4126876;28;20111;-65
2023/12/11 03:11:59;;;;;;;4.50;2.60;;;;;;;10.72;73.07;99539.13;4127612;28;20066;-65
2023/12/11 03:14:02;;;;;;;5.47;1.83;;;;;;;10.75;73.29;99535.69;4127627;28;20505;-65
2023/12/11 03:16:07;;;;;;;5.20;1.17;;;;;;;10.76;73.17;99545.19;4126651;28;20062;-65
2023/12/11 03:18:11;;;;;;;7.07;1.20;;;;;;;10.73;73.42;99529.59;4126607;28;20104;-65
2023/12/11 03:20:13;;;;;;;6.95;1.70;;;;;;;10.79;73.42;99532.19;4127615;28;20088;-66
2023/12/11 03:22:16;;;;;;;9.25;1.88;;;;;;;10.82;72.63;99534.81;4124444;28;20038;-65
2023/12/11 03:24:22;;;;;;;6.65;2.05;;;;;;;10.82;72.89;99527.84;4127533;28;20057;-65
2023/12/11 03:26:25;;;;;;;5.35;1.20;;;;;;;10.79;73.31;99524.38;4127457;28;20501;-65
2023/12/11 03:28:28;;;;;;;3.50;1.38;;;;;;;10.78;73.25;99531.31;4128126;28;20066;-65
2023/12/11 03:30:31;;;;;;;2.17;0.80;;;;;;;10.79;73.44;99526.97;4127016;28;20493;-64
2023/12/11 03:32:35;;;;;;;4.55;1.10;;;;;;;10.82;72.55;99521.81;4126989;28;20057;-64
2023/12/11 03:34:37;;;;;;;6.65;1.88;;;;;;;10.86;73.02;99515.69;4104993;28;20039;-64
2023/12/11 03:36:40;;;;;;;5.30;1.48;;;;;;;10.93;72.46;99513.97;4128112;28;20042;-62
2023/12/11 03:38:44;;;;;;;12.13;2.38;;;;;;;10.83;72.92;99513.13;4124458;28;20038;-63
2023/12/11 03:40:46;;;;;;;4.50;1.10;;;;;;;10.83;72.90;99508.78;4127013;28;20078;-63
2023/12/11 03:42:48;;;;;;;4.75;1.13;;;;;;;10.87;72.15;99501.84;4125229;28;20046;-64
2023/12/11 03:44:51;;;;;;;4.78;1.33;;;;;;;10.83;72.91;99506.19;4124684;28;20038;-65
2023/12/11 03:46:53;;;;;;;4.57;1.48;;;;;;;10.86;72.38;99504.44;4127403;28;20085;-64
2023/12/11 03:48:58;;;;;;;4.60;1.20;;;;;;;10.83;72.63;99514.00;4124985;28;20061;-65
2023/12/11 03:51:01;;;;;;;6.75;1.77;;;;;;;10.79;72.80;99506.19;4127751;28;20125;-63
2023/12/11 03:53:03;;;;;;;9.88;2.08;;;;;;;10.72;72.75;99513.16;4125956;28;20400;-64
2023/12/11 03:55:07;;;;;;;8.27;1.80;;;;;;;10.76;72.23;99512.28;4122386;28;20082;-64
2023/12/11 03:57:09;;;;;;;6.03;1.77;;;;;;;10.73;72.61;99512.28;4126129;28;20046;-64
2023/12/11 03:59:14;;;;;;;6.55;1.80;;;;;;;10.79;72.80;99509.66;4126657;28;20116;-64
2023/12/11 04:01:17;;;;;;;4.78;1.40;;;;;;;10.88;72.52;99510.50;4126298;28;20481;-64
2023/12/11 04:03:20;;;;;;;9.05;1.67;;;;;;;10.85;72.97;99514.00;4124428;28;20046;-64
2023/12/11 04:05:24;;;;;;;5.78;1.20;;;;;;;10.85;72.47;99507.91;4126972;28;20045;-64
2023/12/11 04:07:28;;;;;;;4.30;1.42;;;;;;;10.88;72.79;99507.91;4124849;28;20542;-64
2023/12/11 04:09:31;;;;;;;7.97;1.67;;;;;;;10.94;72.54;99507.91;4122460;28;20521;-64
2023/12/11 04:11:35;;;;;;;4.82;1.23;;;;;;;10.96;72.26;99503.56;4126530;28;20065;-64
2023/12/11 04:13:38;;;;;;;19.05;2.88;;;;;;;10.99;72.21;99512.22;4102472;28;20501;-64
2023/12/11 04:15:41;;;;;;;5.30;1.38;;;;;;;10.95;72.79;99518.31;4127008;28;20038;-64
2023/12/11 04:17:43;;;;;;;5.35;1.70;;;;;;;10.93;72.20;99513.97;4125972;28;20056;-63
2023/12/11 04:20:36;;;;;;;6.10;1.40;;;;;;;10.90;72.27;99516.56;4131556;28;20109;-63
2023/12/11 04:22:40;;;;;;;4.22;1.40;;;;;;;10.86;73.06;99520.03;4128523;28;20046;-65
2023/12/11 04:24:42;;;;;;;4.35;1.27;;;;;;;10.82;72.74;99522.66;4130385;28;20042;-65
2023/12/11 04:26:45;;;;;;;4.13;1.10;;;;;;;10.87;72.89;99512.25;4128315;28;20038;-65
2023/12/11 04:28:48;;;;;;;4.10;1.15;;;;;;;10.94;72.82;99518.31;4126527;28;20254;-65
2023/12/11 04:30:51;;;;;;;4.47;1.73;;;;;;;11.02;73.11;99518.28;4126110;28;20042;-64
2023/12/11 04:32:54;;;;;;;4.32;1.05;;;;;;;10.99;72.87;99521.75;4131293;28;20094;-64
2023/12/11 04:34:57;;;;;;;5.32;1.20;;;;;;;11.02;73.36;99526.94;4129302;28;20042;-64
2023/12/11 04:37:00;;;;;;;2.28;0.82;;;;;;;11.04;72.66;99526.94;4130387;28;20054;-64
2023/12/11 04:39:05;;;;;;;5.60;1.27;;;;;;;11.04;72.97;99525.22;4128590;28;20050;-64
2023/12/11 04:41:08;;;;;;;3.95;1.30;;;;;;;11.06;73.56;99526.06;4125717;28;20457;-64
2023/12/11 04:43:11;;;;;;;7.28;1.48;;;;;;;11.03;73.09;99517.41;4127697;28;20088;-64
2023/12/11 04:45:14;;;;;;;4.60;1.23;;;;;;;11.09;72.93;99520.84;4128795;28;20117;-64
2023/12/11 04:47:17;;;;;;;3.38;1.33;;;;;;;11.09;73.34;99526.06;4129064;28;20058;-64
2023/12/11 04:49:20;;;;;;;5.43;1.35;;;;;;;11.05;73.53;99526.91;4112666;28;20413;-64
2023/12/11 04:51:22;;;;;;;3.45;1.10;;;;;;;11.03;74.00;99520.88;4126958;28;20030;-64
2023/12/11 04:53:25;;;;;;;6.57;1.00;;;;;;;11.03;73.99;99520.88;4130111;28;21492;-64
2023/12/11 04:55:29;;;;;;;4.93;1.10;;;;;;;11.06;73.45;99509.59;4126807;28;20440;-64
2023/12/11 04:57:32;;;;;;;2.85;0.95;;;;;;;11.03;74.21;99505.25;4130146;28;20242;-64
2023/12/11 04:59:34;;;;;;;4.20;1.13;;;;;;;11.04;74.44;99499.19;4128884;28;20456;-64
2023/12/11 05:01:37;;;;;;;4.65;1.13;;;;;;;10.91;74.44;99489.72;4111643;28;20038;-64
2023/12/11 05:03:40;;;;;;;2.90;0.90;;;;;;;10.88;75.33;99497.50;4128244;28;20038;-64
2023/12/11 05:05:43;;;;;;;6.22;2.05;;;;;;;10.87;74.95;99490.59;4129358;28;20030;-64
2023/12/11 05:07:46;;;;;;;2.13;0.93;;;;;;;10.87;75.43;99490.59;4126474;28;20062;-63
2023/12/11 05:09:49;;;;;;;3.00;0.80;;;;;;;10.81;75.65;99486.25;4125509;28;20152;-64
2023/12/11 05:11:54;;;;;;;1.73;0.90;;;;;;;10.71;75.62;99490.59;4128830;28;20069;-63
2023/12/11 05:13:57;;;;;;;1.75;0.73;;;;;;;10.71;76.20;99479.34;4128733;28;20073;-64
2023/12/11 05:15:59;;;;;;;4.45;1.30;;;;;;;10.74;76.75;99482.78;4126142;28;20125;-62
2023/12/11 05:18:03;;;;;;;2.92;0.98;;;;;;;10.73;76.50;99482.81;4128754;28;20038;-63
2023/12/11 05:20:07;;;;;;;2.60;0.90;;;;;;;10.66;77.03;99474.19;4129399;28;20042;-63
2023/12/11 05:22:11;;;;;;;4.53;1.15;;;;;;;10.55;77.53;99468.13;4127199;28;20042;-63
2023/12/11 05:24:15;;;;;;;2.47;1.13;;;;;;;10.65;77.23;99465.50;4128289;28;20061;-62
2023/12/11 05:26:19;;;;;;;5.90;0.93;;;;;;;10.64;77.42;99460.28;4129941;28;20073;-63
2023/12/11 05:28:23;;;;;;;1.27;0.90;;;;;;;10.61;76.87;99458.56;4127190;28;20380;-64
2023/12/11 05:30:27;;;;;;;2.60;0.98;;;;;;;10.63;77.08;99454.25;4128086;28;20042;-64
2023/12/11 05:32:29;;;;;;;2.75;0.90;;;;;;;10.68;77.28;99450.78;4129088;28;20428;-64
2023/12/11 05:34:33;;;;;;;5.65;1.10;;;;;;;10.72;77.02;99442.97;4129513;28;20041;-65
2023/12/11 05:36:36;;;;;;;1.13;0.75;;;;;;;10.72;77.23;99452.47;4128799;28;20042;-65
2023/12/11 05:38:39;;;;;;;2.00;0.68;;;;;;;10.70;76.35;99455.06;4127425;28;20042;-64
2023/12/11 05:40:42;;;;;;;3.85;0.73;;;;;;;10.77;76.25;99462.00;4111515;28;20477;-65
2023/12/11 05:42:44;;;;;;;3.17;0.80;;;;;;;10.78;76.89;99460.28;4128001;28;20224;-65
2023/12/11 05:44:48;;;;;;;1.60;0.70;;;;;;;10.78;76.32;99468.94;4129524;28;20593;-64
2023/12/11 05:46:51;;;;;;;3.78;0.93;;;;;;;10.77;76.31;99472.38;4128397;28;20065;-64
2023/12/11 05:48:54;;;;;;;3.30;1.27;;;;;;;10.77;76.18;99476.72;4129250;28;20087;-64
2023/12/11 05:50:57;;;;;;;2.85;0.95;;;;;;;10.82;75.27;99481.06;4128011;28;20042;-65
2023/12/11 05:53:00;;;;;;;3.78;1.08;;;;;;;10.91;74.56;99464.56;4129794;28;20487;-64
2023/12/11 05:55:04;;;;;;;4.32;0.93;;;;;;;10.96;74.89;99465.41;4128312;28;20034;-64
2023/12/11 05:57:07;;;;;;;2.00;0.75;;;;;;;11.04;74.60;99461.91;4128592;28;20485;-66
2023/12/11 05:59:10;;;;;;;4.22;1.23;;;;;;;11.07;73.63;99474.91;4128475;28;20088;-65
2023/12/11 06:01:15;;;;;;;3.88;1.45;;;;;;;11.04;73.01;99475.78;4125688;28;20058;-65
2023/12/11 06:03:18;;;;;;;3.88;1.10;;;;;;;11.06;73.08;99473.19;4128019;28;20046;-65
2023/12/11 06:05:21;;;;;;;6.18;1.30;;;;;;;11.10;72.52;99480.13;4129610;28;20038;-65
2023/12/11 06:07:24;;;;;;;7.05;1.60;;;;;;;11.12;72.34;99483.56;4129597;28;20038;-65
2023/12/11 06:09:27;;;;;;;9.60;1.98;;;;;;;11.11;72.19;99476.63;4127085;28;20066;-65
2023/12/11 06:11:31;;;;;;;8.18;1.60;;;;;;;11.25;71.91;99473.97;4127906;28;20038;-65
2023/12/11 06:13:33;;;;;;;1.95;1.10;;;;;;;11.28;71.82;99480.00;4125763;28;20045;-64
2023/12/11 06:15:36;;;;;;;4.53;1.30;;;;;;;11.33;71.73;99466.97;4127140;28;20093;-64
2023/12/11 06:17:40;;;;;;;5.03;1.08;;;;;;;11.26;71.54;99468.75;4123260;28;20046;-64
2023/12/11 06:19:43;;;;;;;7.00;1.63;;;;;;;11.32;71.78;99458.31;4125527;28;20478;-63
2023/12/11 06:21:46;;;;;;;1.85;0.95;;;;;;;11.26;71.75;99452.31;4121475;28;20042;-63
2023/12/11 06:23:49;;;;;;;6.15;1.00;;;;;;;11.30;72.27;99454.00;4123839;28;20043;-63
2023/12/11 06:25:52;;;;;;;4.78;1.20;;;;;;;11.28;72.08;99455.75;4127193;28;20100;-64
2023/12/11 06:27:55;;;;;;;4.03;1.25;;;;;;;11.30;71.32;99460.06;4128825;28;20046;-64
2023/12/11 06:29:59;;;;;;;2.97;0.90;;;;;;;11.29;71.08;99460.09;4124861;28;20038;-63
2023/12/11 06:32:02;;;;;;;3.08;0.80;;;;;;;11.27;71.19;99454.00;4122777;28;20030;-64
2023/12/11 06:34:06;;;;;;;7.28;0.88;;;;;;;11.31;70.97;99459.19;4128362;28;20045;-64
2023/12/11 06:36:10;;;;;;;2.85;1.23;;;;;;;11.26;71.25;99460.09;4128124;28;20125;-64
2023/12/11 06:38:13;;;;;;;5.00;1.15;;;;;;;11.26;70.67;99465.31;4108890;28;20038;-64
2023/12/11 06:40:16;;;;;;;6.93;1.50;;;;;;;11.28;70.22;99473.97;4124958;28;20068;-64
2023/12/11 06:42:19;;;;;;;6.15;1.50;;;;;;;11.30;70.99;99467.00;4128982;28;20549;-64
2023/12/11 06:44:22;;;;;;;7.15;1.75;;;;;;;11.33;70.37;99457.47;4129013;28;20085;-63
2023/12/11 06:46:28;;;;;;;3.17;1.30;;;;;;;11.32;70.66;99449.66;4126674;28;20453;-64
2023/12/11 06:48:32;;;;;;;6.82;1.65;;;;;;;11.35;70.82;99460.03;4125573;28;20042;-64
2023/12/11 06:50:36;;;;;;;8.23;1.98;;;;;;;11.39;70.41;99440.94;4127499;28;20112;-63
2023/12/11 06:52:39;;;;;;;2.85;0.98;;;;;;;11.51;70.34;99440.88;4125313;28;20122;-64
2023/12/11 06:54:42;;;;;;;5.63;1.20;;;;;;;11.48;70.28;99435.69;4121830;28;20425;-64
2023/12/11 06:56:45;;;;;;;5.47;1.35;;;;;;;11.42;70.21;99438.31;4128928;28;20046;-64
2023/12/11 06:58:48;;;;;;;2.92;1.00;;;;;;;11.50;70.62;99430.47;4125594;28;20485;-64
2023/12/11 07:00:51;;;;;;;3.97;1.08;;;;;;;11.34;71.06;99432.28;4123858;28;20046;-64
2023/12/11 07:02:54;;;;;;;4.07;1.38;;;;;;;11.38;71.51;99434.00;4128253;28;20121;-64
2023/12/11 07:04:57;;;;;;;1.38;0.85;;;;;;;11.29;72.28;99423.66;4124453;28;20041;-64
2023/12/11 07:07:02;;;;;;;3.90;1.00;;;;;;;11.24;71.30;99433.22;4124283;28;20042;-64
2023/12/11 07:09:05;;;;;;;2.85;0.90;;;;;;;11.20;71.77;99429.78;4122468;28;20500;-64
2023/12/11 07:11:07;;;;;;;6.05;1.30;;;;;;;11.27;71.75;99428.00;4126149;28;20049;-64
2023/12/11 07:13:10;;;;;;;2.00;0.82;;;;;;;11.25;72.08;99434.94;4125059;28;20045;-64
2023/12/11 07:15:14;;;;;;;6.38;1.52;;;;;;;11.26;70.54;99441.91;4125929;28;20512;-64
2023/12/11 07:17:17;;;;;;;3.35;1.13;;;;;;;11.32;70.87;99447.91;4109938;28;20066;-63
2023/12/11 07:19:19;;;;;;;7.45;1.77;;;;;;;11.32;70.97;99445.31;4125714;28;20042;-68
2023/12/11 07:21:22;;;;;;;9.20;2.28;;;;;;;11.32;70.92;99454.88;4112252;28;20067;-72
2023/12/11 07:23:27;;;;;;;5.47;1.55;;;;;;;11.37;70.26;99445.28;4129197;28;20034;-72
2023/12/11 07:25:30;;;;;;;4.45;1.33;;;;;;;11.39;70.19;99438.34;4117770;28;20559;-72
2023/12/11 07:27:34;;;;;;;4.47;1.15;;;;;;;11.45;70.18;99440.91;4112316;28;20063;-72
2023/12/11 07:29:37;;;;;;;8.43;1.52;;;;;;;11.49;69.21;99454.75;4130072;28;20270;-60
2023/12/11 07:31:42;;;;;;;5.60;1.48;;;;;;;11.48;69.54;99463.47;4120367;28;20552;-60
2023/12/11 07:33:44;;;;;;;6.63;1.67;;;;;;;11.49;69.38;99458.25;4128614;28;20053;-61
2023/12/11 07:35:47;;;;;;;5.25;1.48;;;;;;;11.53;69.09;99453.88;4121214;28;20042;-61
2023/12/11 07:37:50;;;;;;;6.13;1.70;;;;;;;11.55;69.33;99456.47;4126420;28;20431;-60
2023/12/11 07:39:54;;;;;;;8.68;2.13;;;;;;;11.50;68.92;99449.53;4125301;28;20081;-61
2023/12/11 07:41:57;;;;;;;6.63;1.60;;;;;;;11.50;68.91;99453.88;4122995;28;20043;-62
2023/12/11 07:44:00;;;;;;;3.08;1.02;;;;;;;11.52;68.41;99447.81;4119160;28;20046;-62
2023/12/11 07:46:03;;;;;;;6.00;1.35;;;;;;;11.58;68.68;99446.03;4091999;28;20047;-61
2023/12/11 07:48:06;;;;;;;5.72;1.60;;;;;;;11.63;68.09;99452.09;4127592;28;20120;-62
2023/12/11 07:50:11;;;;;;;;;;;;;;;11.59;68.50;99453.81;4125575;28;20396;-62
2023/12/11 07:52:14;;;;;;;8.63;1.80;;;;;;;11.61;68.38;99451.22;4129696;28;19949;-62
2023/12/11 07:54:17;;;;;;;5.75;1.73;;;;;;;11.61;68.40;99456.41;4129863;28;20043;-62
2023/12/11 07:56:23;;;;;;;12.73;3.83;;;;;;;11.66;67.88;99457.25;4128306;28;20034;-62
2023/12/11 07:58:26;;;;;;;9.68;2.75;;;;;;;11.65;67.81;99459.00;4130485;28;20034;-62
2023/12/11 08:00:29;;;;;;;12.05;2.38;;;;;;;11.65;68.12;99459.00;4125726;28;20034;-62
2023/12/11 08:02:35;;;;;;;12.65;2.65;;;;;;;11.65;68.12;99452.91;4132103;28;20084;-62
2023/12/11 08:04:38;;;;;;;8.90;2.72;;;;;;;11.69;67.87;99465.06;4129408;28;20049;-62
2023/12/11 08:06:42;;;;;;;15.75;3.05;;;;;;;11.69;68.12;99470.25;4110816;28;20632;-62
2023/12/11 08:08:45;;;;;;;11.43;2.33;;;;;;;11.79;67.76;99458.91;4111183;28;20089;-62
2023/12/11 08:10:48;;;;;;;5.18;2.05;;;;;;;11.80;68.39;99468.44;4124036;28;20062;-62
2023/12/11 08:12:53;;;;;;;11.68;3.20;;;;;;;11.83;68.22;99458.00;4127812;28;20097;-63
2023/12/11 08:14:56;;;;;;;7.93;1.60;;;;;;;11.77;68.04;99462.38;4111730;28;20039;-62
2023/12/11 08:16:59;;;;;;;8.55;1.98;;;;;;;11.77;68.13;99465.00;4126134;28;20034;-62
2023/12/11 08:19:02;;;;;;;5.32;1.73;;;;;;;11.74;68.57;99472.81;4128044;28;20386;-62
2023/12/11 08:21:06;;;;;;;11.77;3.00;;;;;;;11.74;68.15;99480.63;4125651;28;20042;-62
2023/12/11 08:23:09;;;;;;;4.97;1.83;;;;;;;11.72;68.41;99475.44;4126147;28;20100;-62
2023/12/11 08:25:12;;;;;;;9.48;1.70;;;;;;;11.73;68.71;99495.41;4122363;28;20054;-62
2023/12/11 08:27:15;;;;;;;7.72;2.03;;;;;;;11.74;68.88;99489.34;4124541;28;20321;-62
2023/12/11 08:29:21;;;;;;;5.25;1.95;;;;;;;11.66;69.05;99496.31;4126984;28;20138;-62
2023/12/11 08:31:24;;;;;;;6.90;2.00;;;;;;;11.67;69.49;99496.31;4129853;28;20456;-62
2023/12/11 08:33:27;;;;;;;6.80;2.28;;;;;;;11.73;69.06;99489.34;4124637;28;20041;-62
2023/12/11 08:35:30;;;;;;;6.07;1.92;;;;;;;11.73;69.21;99487.59;4128945;28;20038;-62
2023/12/11 08:37:33;;;;;;;5.32;1.63;;;;;;;11.78;69.22;99485.81;4130109;28;20053;-62
2023/12/11 08:39:37;;;;;;;8.23;2.33;;;;;;;11.71;69.20;99489.34;4128386;28;20456;-62
2023/12/11 08:41:40;;;;;;;7.85;2.03;;;;;;;11.71;69.02;99499.78;4128234;28;20048;-62
2023/12/11 08:43:43;;;;;;;7.90;1.95;;;;;;;11.73;69.31;99492.81;4111738;28;20038;-60
2023/12/11 08:45:47;;;;;;;14.35;2.80;;;;;;;11.76;68.99;99498.00;4126035;28;20450;-62
2023/12/11 08:47:50;;;;;;;9.85;1.83;;;;;;;11.76;69.43;99491.94;4125426;28;20539;-62
2023/12/11 08:49:53;;;;;;;11.52;2.80;;;;;;;11.80;69.14;99494.50;4126294;28;20652;-62
2023/12/11 08:51:57;;;;;;;8.63;1.75;;;;;;;11.80;68.21;99494.50;4126953;28;20042;-62
2023/12/11 08:54:00;;;;;;;7.05;2.28;;;;;;;11.94;68.95;99480.53;4128593;28;20408;-62
2023/12/11 08:56:03;;;;;;;6.20;1.80;;;;;;;11.85;68.41;99494.47;4111927;28;20042;-62
2023/12/11 08:58:06;;;;;;;7.35;1.92;;;;;;;11.84;68.24;99484.91;4126731;28;20058;-62
2023/12/11 09:00:10;;;;;;;9.63;2.40;;;;;;;11.86;68.41;99484.03;4111441;28;20066;-62
2023/12/11 09:02:14;;;;;;;6.68;1.65;;;;;;;11.94;68.20;99483.16;4126407;28;20477;-62
2023/12/11 09:04:17;;;;;;;;;;;;;;;11.85;68.11;99500.53;4128171;28;20038;-62
2023/12/11 09:06:21;;;;;;;9.45;2.08;;;;;;;11.91;67.75;99494.41;4127920;28;19929;-61
2023/12/11 09:08:24;;;;;;;8.52;2.28;;;;;;;11.96;67.12;99491.81;4112049;28;20551;-62
2023/12/11 09:10:27;;;;;;;10.23;1.95;;;;;;;12.01;66.73;99496.09;4127077;28;20038;-62
2023/12/11 09:12:30;;;;;;;11.80;3.58;;;;;;;12.13;66.62;99491.69;4128577;28;20046;-62
2023/12/11 09:14:36;;;;;;;9.05;2.75;;;;;;;12.17;66.50;99493.41;4127468;28;20125;-62
2023/12/11 09:16:39;;;;;;;6.40;2.08;;;;;;;12.25;66.26;99495.94;4112999;28;20043;-62
2023/12/11 09:18:43;;;;;;;7.95;1.75;;;;;;;12.16;66.12;99492.53;4127919;28;20549;-62
2023/12/11 09:20:46;;;;;;;;;;;;;;;12.12;66.00;99500.38;4124848;28;20382;-62
2023/12/11 09:22:49;;;;;;;7.53;2.45;;;;;;;12.18;65.69;99493.38;4127254;28;20012;-62
2023/12/11 09:24:52;;;;;;;13.45;2.40;;;;;;;12.25;66.07;99498.53;4125231;28;20038;-62
2023/12/11 09:26:55;;;;;;;11.93;2.55;;;;;;;12.33;65.64;99499.34;4128223;28;20653;-62
2023/12/11 09:28:58;;;;;;;8.18;1.85;;;;;;;12.38;65.76;99508.88;4127463;28;20046;-62
2023/12/11 09:31:01;;;;;;;7.93;2.17;;;;;;;12.41;65.27;99513.16;4123396;28;20451;-62
2023/12/11 09:33:04;;;;;;;11.90;2.97;;;;;;;12.41;65.17;99526.19;4126683;28;20382;-62
2023/12/11 09:35:10;;;;;;;10.38;2.53;;;;;;;12.38;64.56;99524.50;4126344;28;20497;-62
2023/12/11 09:37:15;;;;;;;10.30;1.98;;;;;;;12.41;65.26;99518.38;4127640;28;20038;-62
2023/12/11 09:39:18;;;;;;;11.43;2.40;;;;;;;12.42;64.98;99520.13;4122371;28;20030;-62
2023/12/11 09:41:21;;;;;;;12.15;2.53;;;;;;;12.47;64.49;99526.16;4123512;28;20057;-62